sensor_id;sensor_type;location;lat;lon;timestamp;temperature;humidity
3758;DHT22;1894;51.038;13.692;2023-02-28T00:01:31;1.40;99.90
3758;DHT22;1894;51.038;13.692;2023-02-28T00:03:59;1.50;99.90
3758;DHT22;1894;51.038;13.692;2023-02-28T00:06:26;1.60;99.90
3758;DHT22;1894;51.038;13.692;2023-02-28T00:08:54;1.60;99.90
3758;DHT22;1894;51.038;13.692;2023-02-28T00:11:22;1.70;99.90
3758;DHT22;1894;51.038;13.692;2023-02-28T00:13:49;1.70;99.90
3758;DHT22;1894;51.038;13.692;2023-02-28T00:16:19;1.70;99.90
3758;DHT22;1894;51.038;13.692;2023-02-28T00:18:48;1.60;99.90
3758;DHT22;1894;51.038;13.692;2023-02-28T00:21:17;1.60;99.90
3758;DHT22;1894;51.038;13.692;2023-02-28T00:23:45;1.60;99.90
3758;DHT22;1894;51.038;13.692;2023-02-28T00:26:12;1.60;99.90
3758;DHT22;1894;51.038;13.692;2023-02-28T00:28:43;1.70;99.90
3758;DHT22;1894;51.038;13.692;2023-02-28T00:31:11;1.60;99.90
3758;DHT22;1894;51.038;13.692;2023-02-28T00:33:38;1.70;99.90
3758;DHT22;1894;51.038;13.692;2023-02-28T00:36:07;1.70;99.90
3758;DHT22;1894;51.038;13.692;2023-02-28T00:38:37;1.70;99.90
3758;DHT22;1894;51.038;13.692;2023-02-28T00:41:05;1.60;99.90
3758;DHT22;1894;51.038;13.692;2023-02-28T00:43:35;1.70;99.90
3758;DHT22;1894;51.038;13.692;2023-02-28T00:46:03;1.50;99.90
3758;DHT22;1894;51.038;13.692;2023-02-28T00:48:31;1.50;99.90
3758;DHT22;1894;51.038;13.692;2023-02-28T00:50:59;1.50;99.90
3758;DHT22;1894;51.038;13.692;2023-02-28T00:53:27;1.40;99.90
3758;DHT22;1894;51.038;13.692;2023-02-28T00:55:56;1.30;99.90
3758;DHT22;1894;51.038;13.692;2023-02-28T00:58:25;1.30;99.90
3758;DHT22;1894;51.038;13.692;2023-02-28T01:00:52;1.20;99.90
3758;DHT22;1894;51.038;13.692;2023-02-28T01:03:21;1.30;99.90
3758;DHT22;1894;51.038;13.692;2023-02-28T01:05:49;1.40;99.90
3758;DHT22;1894;51.038;13.692;2023-02-28T01:08:16;1.40;99.90
3758;DHT22;1894;51.038;13.692;2023-02-28T01:10:43;1.30;99.90
3758;DHT22;1894;51.038;13.692;2023-02-28T01:13:11;1.20;99.90
3758;DHT22;1894;51.038;13.692;2023-02-28T01:15:46;1.20;99.90
3758;DHT22;1894;51.038;13.692;2023-02-28T01:18:18;1.20;99.90
3758;DHT22;1894;51.038;13.692;2023-02-28T01:20:46;1.30;99.90
3758;DHT22;1894;51.038;13.692;2023-02-28T01:23:15;1.40;99.90
3758;DHT22;1894;51.038;13.692;2023-02-28T01:25:42;1.50;99.90
3758;DHT22;1894;51.038;13.692;2023-02-28T01:28:10;1.40;99.90
3758;DHT22;1894;51.038;13.692;2023-02-28T01:30:37;1.40;99.90
3758;DHT22;1894;51.038;13.692;2023-02-28T01:33:05;1.30;99.90
3758;DHT22;1894;51.038;13.692;2023-02-28T01:35:33;1.30;99.90
3758;DHT22;1894;51.038;13.692;2023-02-28T01:38:02;1.40;99.90
3758;DHT22;1894;51.038;13.692;2023-02-28T01:40:46;1.50;99.90
3758;DHT22;1894;51.038;13.692;2023-02-28T01:45:48;1.50;99.90
3758;DHT22;1894;51.038;13.692;2023-02-28T01:48:15;1.40;99.90
3758;DHT22;1894;51.038;13.692;2023-02-28T01:50:44;1.40;99.90
3758;DHT22;1894;51.038;13.692;2023-02-28T01:53:19;1.50;99.90
3758;DHT22;1894;51.038;13.692;2023-02-28T01:55:52;1.50;99.90
3758;DHT22;1894;51.038;13.692;2023-02-28T01:58:20;1.40;99.90
3758;DHT22;1894;51.038;13.692;2023-02-28T02:00:47;1.40;99.90
3758;DHT22;1894;51.038;13.692;2023-02-28T02:03:16;1.40;99.90
3758;DHT22;1894;51.038;13.692;2023-02-28T02:05:48;1.40;99.90
3758;DHT22;1894;51.038;13.692;2023-02-28T02:08:21;1.40;99.90
3758;DHT22;1894;51.038;13.692;2023-02-28T02:10:52;1.30;99.90
3758;DHT22;1894;51.038;13.692;2023-02-28T02:22:21;1.20;99.90
3758;DHT22;1894;51.038;13.692;2023-02-28T02:39:06;1.30;99.90
3758;DHT22;1894;51.038;13.692;2023-02-28T02:42:32;1.30;99.90
3758;DHT22;1894;51.038;13.692;2023-02-28T02:48:18;1.30;99.90
3758;DHT22;1894;51.038;13.692;2023-02-28T02:50:55;1.30;99.90
3758;DHT22;1894;51.038;13.692;2023-02-28T02:53:34;1.30;99.90
3758;DHT22;1894;51.038;13.692;2023-02-28T02:56:07;1.30;99.90
3758;DHT22;1894;51.038;13.692;2023-02-28T02:58:41;1.30;99.90
3758;DHT22;1894;51.038;13.692;2023-02-28T03:01:16;1.20;99.90
3758;DHT22;1894;51.038;13.692;2023-02-28T03:03:57;1.20;99.90
3758;DHT22;1894;51.038;13.692;2023-02-28T03:06:27;1.20;99.90
3758;DHT22;1894;51.038;13.692;2023-02-28T03:08:54;1.20;99.90
3758;DHT22;1894;51.038;13.692;2023-02-28T03:11:22;1.10;99.90
3758;DHT22;1894;51.038;13.692;2023-02-28T03:25:04;1.00;99.90
3758;DHT22;1894;51.038;13.692;2023-02-28T03:28:05;1.00;99.90
3758;DHT22;1894;51.038;13.692;2023-02-28T03:31:00;1.00;99.90
3758;DHT22;1894;51.038;13.692;2023-02-28T03:33:54;0.90;99.90
3758;DHT22;1894;51.038;13.692;2023-02-28T03:36:29;0.80;99.90
3758;DHT22;1894;51.038;13.692;2023-02-28T03:39:02;0.70;99.90
3758;DHT22;1894;51.038;13.692;2023-02-28T03:41:36;0.70;99.90
3758;DHT22;1894;51.038;13.692;2023-02-28T03:44:10;0.60;99.90
3758;DHT22;1894;51.038;13.692;2023-02-28T03:47:12;0.60;99.90
3758;DHT22;1894;51.038;13.692;2023-02-28T03:50:01;0.50;99.90
3758;DHT22;1894;51.038;13.692;2023-02-28T03:52:35;0.50;99.90
3758;DHT22;1894;51.038;13.692;2023-02-28T03:55:11;0.40;99.90
3758;DHT22;1894;51.038;13.692;2023-02-28T04:01:08;0.20;99.90
3758;DHT22;1894;51.038;13.692;2023-02-28T04:03:56;0.10;99.90
3758;DHT22;1894;51.038;13.692;2023-02-28T04:06:24;0.10;99.90
3758;DHT22;1894;51.038;13.692;2023-02-28T04:08:51;0.00;99.90
3758;DHT22;1894;51.038;13.692;2023-02-28T04:11:27;0.00;99.90
3758;DHT22;1894;51.038;13.692;2023-02-28T04:13:59;-0.10;99.90
3758;DHT22;1894;51.038;13.692;2023-02-28T04:16:28;-0.20;99.90
3758;DHT22;1894;51.038;13.692;2023-02-28T04:19:03;-0.20;99.90
3758;DHT22;1894;51.038;13.692;2023-02-28T04:21:35;-0.30;99.90
3758;DHT22;1894;51.038;13.692;2023-02-28T04:24:09;-0.30;99.90
3758;DHT22;1894;51.038;13.692;2023-02-28T04:26:43;-0.40;99.90
3758;DHT22;1894;51.038;13.692;2023-02-28T04:29:13;-0.50;99.90
3758;DHT22;1894;51.038;13.692;2023-02-28T04:31:46;-0.60;99.90
3758;DHT22;1894;51.038;13.692;2023-02-28T04:34:13;-0.70;99.90
3758;DHT22;1894;51.038;13.692;2023-02-28T04:36:40;-0.70;99.90
3758;DHT22;1894;51.038;13.692;2023-02-28T04:39:08;-0.80;99.90
3758;DHT22;1894;51.038;13.692;2023-02-28T04:41:36;-0.80;99.90
3758;DHT22;1894;51.038;13.692;2023-02-28T04:44:04;-0.90;99.90
3758;DHT22;1894;51.038;13.692;2023-02-28T04:46:31;-0.90;99.90
3758;DHT22;1894;51.038;13.692;2023-02-28T04:48:58;-1.00;99.90
3758;DHT22;1894;51.038;13.692;2023-02-28T04:51:25;-1.00;99.90
3758;DHT22;1894;51.038;13.692;2023-02-28T04:53:53;-1.00;99.90
3758;DHT22;1894;51.038;13.692;2023-02-28T04:56:21;-1.00;99.90
3758;DHT22;1894;51.038;13.692;2023-02-28T04:58:48;-1.10;99.90
3758;DHT22;1894;51.038;13.692;2023-02-28T05:01:22;-1.10;99.90
3758;DHT22;1894;51.038;13.692;2023-02-28T05:03:51;-1.20;99.90
3758;DHT22;1894;51.038;13.692;2023-02-28T05:06:20;-1.20;99.90
3758;DHT22;1894;51.038;13.692;2023-02-28T05:08:48;-1.20;99.90
3758;DHT22;1894;51.038;13.692;2023-02-28T05:11:20;-1.30;99.90
3758;DHT22;1894;51.038;13.692;2023-02-28T05:13:49;-1.30;99.90
3758;DHT22;1894;51.038;13.692;2023-02-28T05:16:18;-1.30;99.90
3758;DHT22;1894;51.038;13.692;2023-02-28T05:18:45;-1.40;99.90
3758;DHT22;1894;51.038;13.692;2023-02-28T05:21:34;-1.40;99.90
3758;DHT22;1894;51.038;13.692;2023-02-28T05:24:09;-1.40;99.90
3758;DHT22;1894;51.038;13.692;2023-02-28T05:26:42;-1.40;99.90
3758;DHT22;1894;51.038;13.692;2023-02-28T05:29:10;-1.50;99.90
3758;DHT22;1894;51.038;13.692;2023-02-28T05:31:37;-1.60;99.90
3758;DHT22;1894;51.038;13.692;2023-02-28T05:34:05;-1.50;99.90
3758;DHT22;1894;51.038;13.692;2023-02-28T05:36:32;-1.60;99.90
3758;DHT22;1894;51.038;13.692;2023-02-28T05:39:00;-1.60;99.90
3758;DHT22;1894;51.038;13.692;2023-02-28T05:41:27;-1.60;99.90
3758;DHT22;1894;51.038;13.692;2023-02-28T05:43:55;-1.70;99.90
3758;DHT22;1894;51.038;13.692;2023-02-28T05:46:22;-1.80;99.90
3758;DHT22;1894;51.038;13.692;2023-02-28T05:48:49;-1.90;99.90
3758;DHT22;1894;51.038;13.692;2023-02-28T05:51:17;-1.90;99.90
3758;DHT22;1894;51.038;13.692;2023-02-28T05:53:44;-1.90;99.90
3758;DHT22;1894;51.038;13.692;2023-02-28T05:56:12;-1.90;99.90
3758;DHT22;1894;51.038;13.692;2023-02-28T05:58:39;-1.90;99.90
3758;DHT22;1894;51.038;13.692;2023-02-28T06:04:02;-1.90;99.90
3758;DHT22;1894;51.038;13.692;2023-02-28T06:06:30;-1.80;99.90
3758;DHT22;1894;51.038;13.692;2023-02-28T06:08:58;-1.80;99.90
3758;DHT22;1894;51.038;13.692;2023-02-28T06:11:25;-1.80;99.90
3758;DHT22;1894;51.038;13.692;2023-02-28T06:13:55;-1.80;99.90
3758;DHT22;1894;51.038;13.692;2023-02-28T06:16:24;-1.80;99.90
3758;DHT22;1894;51.038;13.692;2023-02-28T06:18:51;-1.70;99.90
3758;DHT22;1894;51.038;13.692;2023-02-28T06:21:19;-1.70;99.90
3758;DHT22;1894;51.038;13.692;2023-02-28T06:23:46;-1.70;99.90
3758;DHT22;1894;51.038;13.692;2023-02-28T06:26:13;-1.60;99.90
3758;DHT22;1894;51.038;13.692;2023-02-28T06:28:40;-1.60;99.90
3758;DHT22;1894;51.038;13.692;2023-02-28T06:31:13;-1.50;99.90
3758;DHT22;1894;51.038;13.692;2023-02-28T06:33:44;-1.50;99.90
3758;DHT22;1894;51.038;13.692;2023-02-28T06:36:13;-1.40;99.90
3758;DHT22;1894;51.038;13.692;2023-02-28T06:38:41;-1.40;99.90
3758;DHT22;1894;51.038;13.692;2023-02-28T06:41:09;-1.40;99.90
3758;DHT22;1894;51.038;13.692;2023-02-28T06:43:41;-1.30;99.90
3758;DHT22;1894;51.038;13.692;2023-02-28T06:46:12;-1.30;99.90
3758;DHT22;1894;51.038;13.692;2023-02-28T06:48:42;-1.30;99.90
3758;DHT22;1894;51.038;13.692;2023-02-28T06:51:19;-1.30;99.90
3758;DHT22;1894;51.038;13.692;2023-02-28T06:53:49;-1.30;99.90
3758;DHT22;1894;51.038;13.692;2023-02-28T06:56:17;-1.20;99.90
3758;DHT22;1894;51.038;13.692;2023-02-28T06:58:50;-1.20;99.90
3758;DHT22;1894;51.038;13.692;2023-02-28T07:01:19;-1.10;99.90
3758;DHT22;1894;51.038;13.692;2023-02-28T07:03:47;-1.10;99.90
3758;DHT22;1894;51.038;13.692;2023-02-28T07:06:20;-1.00;99.90
3758;DHT22;1894;51.038;13.692;2023-02-28T07:08:50;-1.00;99.90
3758;DHT22;1894;51.038;13.692;2023-02-28T07:11:20;-0.80;99.90
3758;DHT22;1894;51.038;13.692;2023-02-28T07:13:50;-0.60;99.90
3758;DHT22;1894;51.038;13.692;2023-02-28T07:16:18;-0.30;99.90
3758;DHT22;1894;51.038;13.692;2023-02-28T07:18:45;0.00;99.90
3758;DHT22;1894;51.038;13.692;2023-02-28T07:21:12;0.20;99.90
3758;DHT22;1894;51.038;13.692;2023-02-28T07:23:39;0.40;99.90
3758;DHT22;1894;51.038;13.692;2023-02-28T07:26:11;0.50;99.90
3758;DHT22;1894;51.038;13.692;2023-02-28T07:28:43;0.70;99.90
3758;DHT22;1894;51.038;13.692;2023-02-28T07:31:12;1.10;99.90
3758;DHT22;1894;51.038;13.692;2023-02-28T07:33:41;1.50;99.90
3758;DHT22;1894;51.038;13.692;2023-02-28T07:36:12;1.50;99.90
3758;DHT22;1894;51.038;13.692;2023-02-28T07:38:43;1.70;99.90
3758;DHT22;1894;51.038;13.692;2023-02-28T07:41:18;1.60;99.90
3758;DHT22;1894;51.038;13.692;2023-02-28T07:43:46;1.40;99.90
3758;DHT22;1894;51.038;13.692;2023-02-28T07:46:15;1.30;99.90
3758;DHT22;1894;51.038;13.692;2023-02-28T07:48:44;1.60;99.90
3758;DHT22;1894;51.038;13.692;2023-02-28T07:51:11;1.70;99.90
3758;DHT22;1894;51.038;13.692;2023-02-28T07:53:38;1.70;99.90
3758;DHT22;1894;51.038;13.692;2023-02-28T07:56:06;1.60;99.90
3758;DHT22;1894;51.038;13.692;2023-02-28T07:58:34;1.60;99.90
3758;DHT22;1894;51.038;13.692;2023-02-28T08:01:09;1.70;99.90
3758;DHT22;1894;51.038;13.692;2023-02-28T08:03:37;1.80;99.90
3758;DHT22;1894;51.038;13.692;2023-02-28T08:06:06;2.00;99.90
3758;DHT22;1894;51.038;13.692;2023-02-28T08:08:34;2.20;99.90
3758;DHT22;1894;51.038;13.692;2023-02-28T08:11:03;2.10;99.90
3758;DHT22;1894;51.038;13.692;2023-02-28T08:13:30;2.10;99.90
3758;DHT22;1894;51.038;13.692;2023-02-28T08:15:57;2.30;99.90
3758;DHT22;1894;51.038;13.692;2023-02-28T08:18:25;2.50;99.90
3758;DHT22;1894;51.038;13.692;2023-02-28T08:20:52;2.90;99.90
3758;DHT22;1894;51.038;13.692;2023-02-28T08:23:19;2.80;99.90
3758;DHT22;1894;51.038;13.692;2023-02-28T08:25:53;2.80;99.90
3758;DHT22;1894;51.038;13.692;2023-02-28T08:28:22;2.90;99.90
3758;DHT22;1894;51.038;13.692;2023-02-28T08:30:53;2.90;99.90
3758;DHT22;1894;51.038;13.692;2023-02-28T08:33:21;2.70;99.90
3758;DHT22;1894;51.038;13.692;2023-02-28T08:35:53;2.50;99.90
3758;DHT22;1894;51.038;13.692;2023-02-28T08:38:21;2.30;99.90
3758;DHT22;1894;51.038;13.692;2023-02-28T08:40:49;2.40;99.90
3758;DHT22;1894;51.038;13.692;2023-02-28T08:43:16;2.80;99.90
3758;DHT22;1894;51.038;13.692;2023-02-28T08:45:43;3.00;99.90
3758;DHT22;1894;51.038;13.692;2023-02-28T08:48:10;3.10;99.90
3758;DHT22;1894;51.038;13.692;2023-02-28T08:50:37;3.30;99.90
3758;DHT22;1894;51.038;13.692;2023-02-28T08:53:05;3.50;99.90
3758;DHT22;1894;51.038;13.692;2023-02-28T08:55:32;3.40;99.90
3758;DHT22;1894;51.038;13.692;2023-02-28T08:57:59;3.20;99.90
3758;DHT22;1894;51.038;13.692;2023-02-28T09:00:28;3.20;99.90
3758;DHT22;1894;51.038;13.692;2023-02-28T09:02:55;3.40;99.90
3758;DHT22;1894;51.038;13.692;2023-02-28T09:05:22;3.60;99.90
3758;DHT22;1894;51.038;13.692;2023-02-28T09:07:49;3.50;99.90
3758;DHT22;1894;51.038;13.692;2023-02-28T09:10:16;3.70;99.90
3758;DHT22;1894;51.038;13.692;2023-02-28T09:12:43;3.70;99.90
3758;DHT22;1894;51.038;13.692;2023-02-28T09:15:13;3.90;99.90
3758;DHT22;1894;51.038;13.692;2023-02-28T09:17:40;3.70;99.90
3758;DHT22;1894;51.038;13.692;2023-02-28T09:20:09;4.40;99.90
3758;DHT22;1894;51.038;13.692;2023-02-28T09:22:36;4.40;99.90
3758;DHT22;1894;51.038;13.692;2023-02-28T09:25:04;4.70;99.90
3758;DHT22;1894;51.038;13.692;2023-02-28T09:27:31;4.40;98.90
3758;DHT22;1894;51.038;13.692;2023-02-28T09:29:58;4.60;98.60
3758;DHT22;1894;51.038;13.692;2023-02-28T09:32:25;4.70;99.00
3758;DHT22;1894;51.038;13.692;2023-02-28T09:34:53;4.20;98.80
3758;DHT22;1894;51.038;13.692;2023-02-28T09:37:20;4.20;98.20
3758;DHT22;1894;51.038;13.692;2023-02-28T09:39:47;4.00;97.50
3758;DHT22;1894;51.038;13.692;2023-02-28T09:42:21;3.60;98.50
3758;DHT22;1894;51.038;13.692;2023-02-28T09:49:22;3.50;99.30
3758;DHT22;1894;51.038;13.692;2023-02-28T09:52:14;3.60;99.90
3758;DHT22;1894;51.038;13.692;2023-02-28T09:54:43;3.80;99.10
3758;DHT22;1894;51.038;13.692;2023-02-28T09:57:40;3.70;99.90
3758;DHT22;1894;51.038;13.692;2023-02-28T10:00:17;3.90;98.10
3758;DHT22;1894;51.038;13.692;2023-02-28T10:03:04;3.80;96.90
3758;DHT22;1894;51.038;13.692;2023-02-28T10:05:49;4.00;94.50
3758;DHT22;1894;51.038;13.692;2023-02-28T10:09:00;3.90;95.90
3758;DHT22;1894;51.038;13.692;2023-02-28T10:11:52;3.80;95.20
3758;DHT22;1894;51.038;13.692;2023-02-28T10:14:28;3.80;95.10
3758;DHT22;1894;51.038;13.692;2023-02-28T10:17:09;4.00;94.70
3758;DHT22;1894;51.038;13.692;2023-02-28T10:20:03;3.80;93.40
3758;DHT22;1894;51.038;13.692;2023-02-28T10:26:11;3.90;93.00
3758;DHT22;1894;51.038;13.692;2023-02-28T10:28:42;3.80;93.20
3758;DHT22;1894;51.038;13.692;2023-02-28T10:31:20;3.80;93.60
3758;DHT22;1894;51.038;13.692;2023-02-28T10:33:55;3.80;93.70
3758;DHT22;1894;51.038;13.692;2023-02-28T10:36:23;3.70;94.90
3758;DHT22;1894;51.038;13.692;2023-02-28T10:38:51;3.60;94.60
3758;DHT22;1894;51.038;13.692;2023-02-28T10:41:32;3.70;94.50
3758;DHT22;1894;51.038;13.692;2023-02-28T10:44:20;3.70;94.50
3758;DHT22;1894;51.038;13.692;2023-02-28T10:46:49;3.90;96.10
3758;DHT22;1894;51.038;13.692;2023-02-28T10:49:28;4.10;94.50
3758;DHT22;1894;51.038;13.692;2023-02-28T10:51:58;4.20;95.10
3758;DHT22;1894;51.038;13.692;2023-02-28T10:54:33;4.50;94.30
3758;DHT22;1894;51.038;13.692;2023-02-28T10:57:18;4.70;93.60
3758;DHT22;1894;51.038;13.692;2023-02-28T10:59:52;4.80;93.20
3758;DHT22;1894;51.038;13.692;2023-02-28T11:02:36;4.70;92.40
3758;DHT22;1894;51.038;13.692;2023-02-28T11:05:31;4.70;92.80
3758;DHT22;1894;51.038;13.692;2023-02-28T11:08:20;4.70;93.30
3758;DHT22;1894;51.038;13.692;2023-02-28T11:10:55;4.70;92.90
3758;DHT22;1894;51.038;13.692;2023-02-28T11:13:35;4.90;92.10
3758;DHT22;1894;51.038;13.692;2023-02-28T11:16:06;5.10;92.20
3758;DHT22;1894;51.038;13.692;2023-02-28T11:18:54;5.40;91.30
3758;DHT22;1894;51.038;13.692;2023-02-28T11:21:34;5.70;91.60
3758;DHT22;1894;51.038;13.692;2023-02-28T11:24:27;5.90;88.00
3758;DHT22;1894;51.038;13.692;2023-02-28T11:26:55;6.20;89.70
3758;DHT22;1894;51.038;13.692;2023-02-28T11:29:28;6.50;88.50
3758;DHT22;1894;51.038;13.692;2023-02-28T11:32:04;6.50;85.40
3758;DHT22;1894;51.038;13.692;2023-02-28T11:34:45;7.10;86.70
3758;DHT22;1894;51.038;13.692;2023-02-28T11:37:18;7.10;84.60
3758;DHT22;1894;51.038;13.692;2023-02-28T11:39:46;7.70;81.90
3758;DHT22;1894;51.038;13.692;2023-02-28T11:56:32;10.90;60.80
3758;DHT22;1894;51.038;13.692;2023-02-28T12:05:11;12.50;53.60
3758;DHT22;1894;51.038;13.692;2023-02-28T12:14:25;15.60;43.50
3758;DHT22;1894;51.038;13.692;2023-02-28T12:20:13;15.10;42.30
3758;DHT22;1894;51.038;13.692;2023-02-28T12:25:43;16.20;40.30
3758;DHT22;1894;51.038;13.692;2023-02-28T12:28:17;17.30;39.50
3758;DHT22;1894;51.038;13.692;2023-02-28T12:31:18;17.20;38.50
3758;DHT22;1894;51.038;13.692;2023-02-28T12:34:01;17.50;38.00
3758;DHT22;1894;51.038;13.692;2023-02-28T12:36:31;18.50;37.20
3758;DHT22;1894;51.038;13.692;2023-02-28T12:39:41;17.10;36.40
3758;DHT22;1894;51.038;13.692;2023-02-28T12:42:28;15.00;37.10
3758;DHT22;1894;51.038;13.692;2023-02-28T12:45:02;16.20;38.70
3758;DHT22;1894;51.038;13.692;2023-02-28T12:47:38;17.60;36.90
3758;DHT22;1894;51.038;13.692;2023-02-28T12:50:10;16.00;35.10
3758;DHT22;1894;51.038;13.692;2023-02-28T13:01:53;17.40;33.70
3758;DHT22;1894;51.038;13.692;2023-02-28T13:08:01;18.80;34.70
3758;DHT22;1894;51.038;13.692;2023-02-28T13:10:57;19.90;33.50
3758;DHT22;1894;51.038;13.692;2023-02-28T13:13:29;18.80;32.60
3758;DHT22;1894;51.038;13.692;2023-02-28T13:16:09;19.30;33.80
3758;DHT22;1894;51.038;13.692;2023-02-28T13:18:45;19.50;33.20
3758;DHT22;1894;51.038;13.692;2023-02-28T13:24:04;17.70;34.40
3758;DHT22;1894;51.038;13.692;2023-02-28T13:39:54;18.20;35.20
3758;DHT22;1894;51.038;13.692;2023-02-28T13:42:53;19.00;32.90
3758;DHT22;1894;51.038;13.692;2023-02-28T13:45:23;18.70;32.60
3758;DHT22;1894;51.038;13.692;2023-02-28T13:48:00;19.50;32.10
3758;DHT22;1894;51.038;13.692;2023-02-28T13:50:37;18.90;31.10
3758;DHT22;1894;51.038;13.692;2023-02-28T13:56:04;17.50;32.10
3758;DHT22;1894;51.038;13.692;2023-02-28T13:58:52;17.80;32.80
3758;DHT22;1894;51.038;13.692;2023-02-28T14:04:58;18.60;32.50
3758;DHT22;1894;51.038;13.692;2023-02-28T14:07:31;19.30;32.10
3758;DHT22;1894;51.038;13.692;2023-02-28T14:10:31;18.20;31.50
3758;DHT22;1894;51.038;13.692;2023-02-28T14:13:04;18.10;32.40
3758;DHT22;1894;51.038;13.692;2023-02-28T14:15:59;16.00;33.40
3758;DHT22;1894;51.038;13.692;2023-02-28T14:18:33;16.40;34.40
3758;DHT22;1894;51.038;13.692;2023-02-28T14:33:20;17.40;30.90
3758;DHT22;1894;51.038;13.692;2023-02-28T14:38:21;17.60;31.20
3758;DHT22;1894;51.038;13.692;2023-02-28T14:40:52;17.30;32.30
3758;DHT22;1894;51.038;13.692;2023-02-28T14:43:24;17.10;33.30
3758;DHT22;1894;51.038;13.692;2023-02-28T14:45:58;16.60;32.60
3758;DHT22;1894;51.038;13.692;2023-02-28T14:48:27;15.70;33.10
3758;DHT22;1894;51.038;13.692;2023-02-28T14:50:57;16.20;34.10
3758;DHT22;1894;51.038;13.692;2023-02-28T14:53:29;17.60;33.20
3758;DHT22;1894;51.038;13.692;2023-02-28T14:56:01;16.00;32.50
3758;DHT22;1894;51.038;13.692;2023-02-28T14:58:31;15.30;33.60
3758;DHT22;1894;51.038;13.692;2023-02-28T15:01:02;15.60;34.00
3758;DHT22;1894;51.038;13.692;2023-02-28T15:03:33;14.80;34.30
3758;DHT22;1894;51.038;13.692;2023-02-28T15:06:12;14.90;35.30
3758;DHT22;1894;51.038;13.692;2023-02-28T15:08:40;14.80;35.00
3758;DHT22;1894;51.038;13.692;2023-02-28T15:11:13;13.80;35.10
3758;DHT22;1894;51.038;13.692;2023-02-28T15:13:44;12.50;36.70
3758;DHT22;1894;51.038;13.692;2023-02-28T15:19:04;12.80;38.60
3758;DHT22;1894;51.038;13.692;2023-02-28T15:21:39;13.00;38.90
3758;DHT22;1894;51.038;13.692;2023-02-28T15:27:25;13.90;37.90
3758;DHT22;1894;51.038;13.692;2023-02-28T15:30:00;13.80;37.20
3758;DHT22;1894;51.038;13.692;2023-02-28T15:32:37;12.20;38.70
3758;DHT22;1894;51.038;13.692;2023-02-28T15:37:53;9.30;46.50
3758;DHT22;1894;51.038;13.692;2023-02-28T15:40:29;8.60;49.20
3758;DHT22;1894;51.038;13.692;2023-02-28T15:45:48;6.70;57.80
3758;DHT22;1894;51.038;13.692;2023-02-28T15:48:18;6.60;60.00
3758;DHT22;1894;51.038;13.692;2023-02-28T15:50:53;6.30;62.60
3758;DHT22;1894;51.038;13.692;2023-02-28T15:53:59;6.10;64.80
3758;DHT22;1894;51.038;13.692;2023-02-28T15:56:28;5.90;68.20
3758;DHT22;1894;51.038;13.692;2023-02-28T15:59:06;5.30;70.30
3758;DHT22;1894;51.038;13.692;2023-02-28T16:01:38;5.20;73.50
3758;DHT22;1894;51.038;13.692;2023-02-28T16:04:18;5.10;76.40
3758;DHT22;1894;51.038;13.692;2023-02-28T16:09:26;4.90;78.00
3758;DHT22;1894;51.038;13.692;2023-02-28T16:11:55;4.80;78.80
3758;DHT22;1894;51.038;13.692;2023-02-28T16:14:26;4.80;81.00
3758;DHT22;1894;51.038;13.692;2023-02-28T16:17:03;4.80;80.70
3758;DHT22;1894;51.038;13.692;2023-02-28T16:19:35;4.70;82.20
3758;DHT22;1894;51.038;13.692;2023-02-28T16:22:02;4.60;84.10
3758;DHT22;1894;51.038;13.692;2023-02-28T16:24:29;4.70;84.50
3758;DHT22;1894;51.038;13.692;2023-02-28T16:26:57;4.60;85.40
3758;DHT22;1894;51.038;13.692;2023-02-28T16:29:31;4.50;84.50
3758;DHT22;1894;51.038;13.692;2023-02-28T16:32:00;4.50;86.40
3758;DHT22;1894;51.038;13.692;2023-02-28T16:34:27;4.30;87.90
3758;DHT22;1894;51.038;13.692;2023-02-28T16:36:54;4.20;88.40
3758;DHT22;1894;51.038;13.692;2023-02-28T16:39:22;4.20;90.30
3758;DHT22;1894;51.038;13.692;2023-02-28T16:41:50;3.90;90.50
3758;DHT22;1894;51.038;13.692;2023-02-28T16:44:33;3.90;91.20
3758;DHT22;1894;51.038;13.692;2023-02-28T16:47:03;3.90;92.80
3758;DHT22;1894;51.038;13.692;2023-02-28T16:49:31;3.80;92.40
3758;DHT22;1894;51.038;13.692;2023-02-28T16:51:58;3.60;93.20
3758;DHT22;1894;51.038;13.692;2023-02-28T16:54:25;3.60;94.70
3758;DHT22;1894;51.038;13.692;2023-02-28T16:56:53;3.50;95.50
3758;DHT22;1894;51.038;13.692;2023-02-28T16:59:26;3.40;95.90
3758;DHT22;1894;51.038;13.692;2023-02-28T17:01:55;3.30;98.40
3758;DHT22;1894;51.038;13.692;2023-02-28T17:04:26;3.10;99.90
3758;DHT22;1894;51.038;13.692;2023-02-28T17:06:53;3.00;99.90
3758;DHT22;1894;51.038;13.692;2023-02-28T17:09:23;3.00;99.90
3758;DHT22;1894;51.038;13.692;2023-02-28T17:12:07;2.90;99.90
3758;DHT22;1894;51.038;13.692;2023-02-28T17:14:35;2.80;99.90
3758;DHT22;1894;51.038;13.692;2023-02-28T17:17:05;2.70;99.90
3758;DHT22;1894;51.038;13.692;2023-02-28T17:19:32;2.60;99.90
3758;DHT22;1894;51.038;13.692;2023-02-28T17:22:01;2.50;99.90
3758;DHT22;1894;51.038;13.692;2023-02-28T17:24:29;2.50;99.90
3758;DHT22;1894;51.038;13.692;2023-02-28T17:26:57;2.50;99.90
3758;DHT22;1894;51.038;13.692;2023-02-28T17:29:24;2.40;99.90
3758;DHT22;1894;51.038;13.692;2023-02-28T17:31:52;2.40;99.90
3758;DHT22;1894;51.038;13.692;2023-02-28T17:34:19;2.30;99.90
3758;DHT22;1894;51.038;13.692;2023-02-28T17:36:49;2.30;99.90
3758;DHT22;1894;51.038;13.692;2023-02-28T17:39:18;2.20;99.90
3758;DHT22;1894;51.038;13.692;2023-02-28T17:41:56;2.20;99.90
3758;DHT22;1894;51.038;13.692;2023-02-28T17:44:24;2.10;99.90
3758;DHT22;1894;51.038;13.692;2023-02-28T17:46:53;2.00;99.90
3758;DHT22;1894;51.038;13.692;2023-02-28T17:49:22;1.90;99.90
3758;DHT22;1894;51.038;13.692;2023-02-28T17:51:49;1.90;99.90
3758;DHT22;1894;51.038;13.692;2023-02-28T17:54:17;1.90;99.90
3758;DHT22;1894;51.038;13.692;2023-02-28T17:56:45;1.90;99.90
3758;DHT22;1894;51.038;13.692;2023-02-28T17:59:12;1.90;99.90
3758;DHT22;1894;51.038;13.692;2023-02-28T18:01:40;1.90;99.90
3758;DHT22;1894;51.038;13.692;2023-02-28T18:04:07;1.80;99.90
3758;DHT22;1894;51.038;13.692;2023-02-28T18:06:42;1.70;99.90
3758;DHT22;1894;51.038;13.692;2023-02-28T18:09:18;1.60;99.90
3758;DHT22;1894;51.038;13.692;2023-02-28T18:11:50;1.60;99.90
3758;DHT22;1894;51.038;13.692;2023-02-28T18:14:19;1.50;99.90
3758;DHT22;1894;51.038;13.692;2023-02-28T18:16:50;1.40;99.90
3758;DHT22;1894;51.038;13.692;2023-02-28T18:19:19;1.40;99.90
3758;DHT22;1894;51.038;13.692;2023-02-28T18:21:49;1.40;99.90
3758;DHT22;1894;51.038;13.692;2023-02-28T18:24:20;1.30;99.90
3758;DHT22;1894;51.038;13.692;2023-02-28T18:26:49;1.30;99.90
3758;DHT22;1894;51.038;13.692;2023-02-28T18:29:20;1.20;99.90
3758;DHT22;1894;51.038;13.692;2023-02-28T18:31:50;1.10;99.90
3758;DHT22;1894;51.038;13.692;2023-02-28T18:34:17;1.00;99.90
3758;DHT22;1894;51.038;13.692;2023-02-28T18:36:45;0.90;99.90
3758;DHT22;1894;51.038;13.692;2023-02-28T18:39:14;0.90;99.90
3758;DHT22;1894;51.038;13.692;2023-02-28T18:41:41;0.80;99.90
3758;DHT22;1894;51.038;13.692;2023-02-28T18:44:09;0.80;99.90
3758;DHT22;1894;51.038;13.692;2023-02-28T18:46:45;0.80;99.90
3758;DHT22;1894;51.038;13.692;2023-02-28T18:49:12;0.80;99.90
3758;DHT22;1894;51.038;13.692;2023-02-28T18:51:40;0.80;99.90
3758;DHT22;1894;51.038;13.692;2023-02-28T18:54:12;0.80;99.90
3758;DHT22;1894;51.038;13.692;2023-02-28T18:56:40;0.70;99.90
3758;DHT22;1894;51.038;13.692;2023-02-28T18:59:08;0.60;99.90
3758;DHT22;1894;51.038;13.692;2023-02-28T19:01:36;0.60;99.90